Time;durP1;ratioP1;P1;durP2;ratioP2;P2;SDS_P1;SDS_P2;PMS_P1;PMS_P2;Temp;Humidity;BMP_temperature;BMP_pressure;BME280_temperature;BME280_humidity;BME280_pressure;Samples;Min_cycle;Max_cycle;Signal;HPM_P1;HPM_P2
2023/04/14 00:00:19;;;;;;;2.63;0.60;;;;;;;;;;4895430;29;20053;-64
2023/04/14 00:02:48;;;;;;;0.80;0.52;;;;;;;;;;4883177;29;20093;-59
2023/04/14 00:05:16;;;;;;;0.30;0.30;;;;;;;;;;4880957;29;20049;-63
2023/04/14 00:07:45;;;;;;;0.13;0.13;;;;;;;;;;4873079;29;20494;-62
2023/04/14 00:10:15;;;;;;;0.50;0.50;;;;;;;;;;4881263;29;20151;-60
2023/04/14 00:12:43;;;;;;;0.38;0.38;;;;;;;;;;4878604;29;20115;-59
2023/04/14 00:15:12;;;;;;;1.95;0.30;;;;;;;;;;4876874;29;20175;-59
2023/04/14 00:17:40;;;;;;;0.30;0.30;;;;;;;;;;4882587;29;20077;-63
2023/04/14 00:20:09;;;;;;;1.23;0.60;;;;;;;;;;4889141;29;20084;-61
2023/04/14 00:22:38;;;;;;;0.60;0.60;;;;;;;;;;4876653;29;20109;-59
2023/04/14 00:25:06;;;;;;;0.68;0.38;;;;;;;;;;4880739;29;20135;-61
2023/04/14 00:27:36;;;;;;;0.22;0.20;;;;;;;;;;4885794;29;20174;-60
2023/04/14 00:30:05;;;;;;;2.05;0.60;;;;;;;;;;4877103;29;20060;-60
2023/04/14 00:32:33;;;;;;;0.82;0.52;;;;;;;;;;4876320;29;20133;-58
2023/04/14 00:35:03;;;;;;;0.65;0.65;;;;;;;;;;4881490;29;20051;-59
2023/04/14 00:37:31;;;;;;;0.30;0.30;;;;;;;;;;4881408;29;20230;-60
2023/04/14 00:39:59;;;;;;;0.43;0.43;;;;;;;;;;4882287;29;20125;-59
2023/04/14 00:42:28;;;;;;;1.52;0.45;;;;;;;;;;4870215;29;20799;-60
2023/04/14 00:44:57;;;;;;;1.25;0.65;;;;;;;;;;4876064;29;20463;-60
2023/04/14 00:47:27;;;;;;;0.43;0.30;;;;;;;;;;4875901;29;20061;-59
2023/04/14 00:49:55;;;;;;;9.60;0.95;;;;;;;;;;4886688;29;20068;-60
2023/04/14 00:52:24;;;;;;;7.07;0.65;;;;;;;;;;4875831;29;20057;-66
2023/04/14 00:54:52;;;;;;;0.65;0.40;;;;;;;;;;4875664;29;20088;-62
2023/04/14 00:57:20;;;;;;;0.73;0.65;;;;;;;;;;4878277;29;20055;-60
2023/04/14 00:59:49;;;;;;;3.00;0.60;;;;;;;;;;4875992;29;20088;-61
2023/04/14 01:02:19;;;;;;;0.28;0.28;;;;;;;;;;4897556;23;20908;-60
2023/04/14 01:04:47;;;;;;;0.63;0.63;;;;;;;;;;4935237;29;20079;-60
2023/04/14 01:07:22;;;;;;;1.00;0.52;;;;;;;;;;4935783;29;20105;-59
2023/04/14 01:09:51;;;;;;;2.60;0.73;;;;;;;;;;4935770;29;20052;-60
2023/04/14 01:12:24;;;;;;;0.35;0.35;;;;;;;;;;4935386;29;20054;-60
2023/04/14 01:14:59;;;;;;;0.60;0.60;;;;;;;;;;4935116;29;20052;-59
2023/04/14 01:17:36;;;;;;;1.20;0.95;;;;;;;;;;4935441;29;20058;-59
2023/04/14 01:20:09;;;;;;;0.68;0.50;;;;;;;;;;4935015;29;20453;-60
2023/04/14 01:22:39;;;;;;;0.40;0.40;;;;;;;;;;4935823;29;20434;-60
2023/04/14 01:25:13;;;;;;;1.05;0.52;;;;;;;;;;4935071;29;20135;-59
2023/04/14 01:27:44;;;;;;;1.58;0.45;;;;;;;;;;4935814;29;20135;-60
2023/04/14 01:30:30;;;;;;;1.67;0.98;;;;;;;;;;4934806;29;20131;-59
2023/04/14 01:33:04;;;;;;;0.13;0.13;;;;;;;;;;4928350;29;20071;-59
2023/04/14 01:35:35;;;;;;;0.10;0.10;;;;;;;;;;4935420;29;20051;-59
2023/04/14 01:38:05;;;;;;;0.10;0.10;;;;;;;;;;4931292;29;20500;-59
2023/04/14 01:40:34;;;;;;;0.70;0.32;;;;;;;;;;4929260;29;20056;-60
2023/04/14 01:43:06;;;;;;;0.70;0.63;;;;;;;;;;4933448;29;20071;-59
2023/04/14 01:45:37;;;;;;;1.50;0.45;;;;;;;;;;4934591;29;20540;-59
2023/04/14 01:48:07;;;;;;;0.20;0.20;;;;;;;;;;4934775;29;20453;-59
2023/04/14 01:50:37;;;;;;;1.08;0.57;;;;;;;;;;4935106;29;20465;-61
2023/04/14 01:53:07;;;;;;;0.55;0.55;;;;;;;;;;4934588;29;20054;-59
2023/04/14 01:55:37;;;;;;;0.15;0.15;;;;;;;;;;4934160;29;20095;-59
2023/04/14 01:58:07;;;;;;;0.28;0.28;;;;;;;;;;4934745;29;20119;-61
2023/04/14 02:00:36;;;;;;;0.30;0.30;;;;;;;;;;4934688;29;20047;-61
2023/04/14 02:03:05;;;;;;;0.10;0.10;;;;;;;;;;4934029;29;20539;-59
2023/04/14 02:05:36;;;;;;;0.20;0.20;;;;;;;;;;4934141;29;20058;-58
2023/04/14 02:08:06;;;;;;;0.13;0.13;;;;;;;;;;4934612;29;20044;-59
2023/04/14 02:10:36;;;;;;;0.20;0.20;;;;;;;;;;4934106;29;20571;-61
2023/04/14 02:13:05;;;;;;;0.20;0.20;;;;;;;;;;4934410;29;20147;-62
2023/04/14 02:15:33;;;;;;;0.70;0.45;;;;;;;;;;4933770;29;20047;-60
2023/04/14 02:18:03;;;;;;;0.50;0.30;;;;;;;;;;4934116;29;20047;-59
2023/04/14 02:20:33;;;;;;;0.20;0.20;;;;;;;;;;4933999;29;20888;-59
2023/04/14 02:23:02;;;;;;;0.20;0.20;;;;;;;;;;4934323;29;20490;-59
2023/04/14 02:25:32;;;;;;;1.65;0.73;;;;;;;;;;4934011;28;20138;-59
2023/04/14 02:28:02;;;;;;;1.40;0.55;;;;;;;;;;4934461;29;20043;-59
2023/04/14 02:30:32;;;;;;;0.57;0.38;;;;;;;;;;4934461;29;20135;-58
2023/04/14 02:33:02;;;;;;;0.20;0.20;;;;;;;;;;4934134;29;20082;-60
2023/04/14 02:35:36;;;;;;;0.17;0.17;;;;;;;;;;4933856;29;20508;-59
2023/04/14 02:38:09;;;;;;;0.17;0.17;;;;;;;;;;4933629;29;20048;-59
2023/04/14 02:40:39;;;;;;;0.20;0.20;;;;;;;;;;4927662;29;20537;-59
2023/04/14 02:43:12;;;;;;;0.25;0.20;;;;;;;;;;4933784;29;20048;-59
2023/04/14 02:45:42;;;;;;;0.50;0.40;;;;;;;;;;4933080;29;20052;-59
2023/04/14 02:48:13;;;;;;;5.63;0.80;;;;;;;;;;4934162;29;20500;-59
2023/04/14 02:50:43;;;;;;;0.77;0.32;;;;;;;;;;4933183;29;20052;-60
2023/04/14 02:53:14;;;;;;;0.77;0.40;;;;;;;;;;4933819;29;20058;-59
2023/04/14 02:55:42;;;;;;;0.85;0.30;;;;;;;;;;4933150;29;20044;-59
2023/04/14 02:58:11;;;;;;;0.25;0.25;;;;;;;;;;4933866;29;20082;-59
2023/04/14 03:00:40;;;;;;;0.40;0.40;;;;;;;;;;4934471;29;20058;-59
2023/04/14 03:03:10;;;;;;;0.95;0.40;;;;;;;;;;4933034;29;20111;-61
2023/04/14 03:05:39;;;;;;;0.80;0.80;;;;;;;;;;4929390;29;20052;-60
2023/04/14 03:08:08;;;;;;;0.50;0.50;;;;;;;;;;4925203;29;20196;-59
2023/04/14 03:10:38;;;;;;;0.75;0.40;;;;;;;;;;4933421;29;20052;-60
2023/04/14 03:13:07;;;;;;;0.60;0.50;;;;;;;;;;4933442;29;20058;-59
2023/04/14 03:15:36;;;;;;;0.30;0.25;;;;;;;;;;4932897;29;20059;-59
2023/04/14 03:18:05;;;;;;;0.35;0.35;;;;;;;;;;4933470;29;20091;-60
2023/04/14 03:20:34;;;;;;;0.30;0.30;;;;;;;;;;4920563;29;20476;-59
2023/04/14 03:23:05;;;;;;;0.17;0.17;;;;;;;;;;4933172;29;20400;-59
2023/04/14 03:25:36;;;;;;;0.25;0.25;;;;;;;;;;4932991;29;20520;-59
2023/04/14 03:28:08;;;;;;;0.63;0.40;;;;;;;;;;4933313;29;20043;-59
2023/04/14 03:30:37;;;;;;;0.98;0.77;;;;;;;;;;4932968;29;20048;-59
2023/04/14 03:33:07;;;;;;;0.30;0.30;;;;;;;;;;4933176;29;20667;-59
2023/04/14 03:35:36;;;;;;;0.55;0.55;;;;;;;;;;4932777;29;20107;-59
2023/04/14 03:38:08;;;;;;;0.40;0.40;;;;;;;;;;4932807;29;20052;-59
2023/04/14 03:40:39;;;;;;;1.83;0.50;;;;;;;;;;4928473;29;20477;-58
2023/04/14 03:43:11;;;;;;;1.73;0.43;;;;;;;;;;4932528;29;20055;-59
2023/04/14 03:45:40;;;;;;;0.47;0.47;;;;;;;;;;4932462;28;20055;-60
2023/04/14 03:48:10;;;;;;;0.50;0.50;;;;;;;;;;4920678;29;20043;-60
2023/04/14 03:50:40;;;;;;;0.88;0.40;;;;;;;;;;4932589;29;20056;-59
2023/04/14 03:53:11;;;;;;;1.25;1.15;;;;;;;;;;4932699;29;20159;-59
2023/04/14 03:55:41;;;;;;;0.30;0.30;;;;;;;;;;4931965;28;20067;-60
2023/04/14 03:58:11;;;;;;;1.85;0.38;;;;;;;;;;4932682;29;20066;-59
2023/04/14 04:00:40;;;;;;;0.40;0.40;;;;;;;;;;4932108;29;20078;-59
2023/04/14 04:03:09;;;;;;;1.67;1.25;;;;;;;;;;4931952;29;20063;-59
2023/04/14 04:05:39;;;;;;;0.63;0.45;;;;;;;;;;4928355;29;20055;-60
2023/04/14 04:08:08;;;;;;;0.35;0.35;;;;;;;;;;4924213;29;20361;-59
2023/04/14 04:10:38;;;;;;;0.50;0.50;;;;;;;;;;4932111;29;20055;-59
2023/04/14 04:13:08;;;;;;;1.75;0.82;;;;;;;;;;4932376;29;20052;-59
2023/04/14 04:15:38;;;;;;;0.90;0.32;;;;;;;;;;4931971;28;20142;-59
2023/04/14 04:18:07;;;;;;;2.33;1.05;;;;;;;;;;4931833;29;20127;-59
2023/04/14 04:20:38;;;;;;;0.50;0.50;;;;;;;;;;4932427;29;20130;-60
2023/04/14 04:23:07;;;;;;;0.70;0.68;;;;;;;;;;4931971;29;20058;-59
2023/04/14 04:25:36;;;;;;;1.60;0.70;;;;;;;;;;4931914;29;20134;-60
2023/04/14 04:28:05;;;;;;;1.48;0.95;;;;;;;;;;4931945;29;20109;-59
2023/04/14 04:30:34;;;;;;;1.85;1.00;;;;;;;;;;4932024;29;20392;-59
2023/04/14 04:33:04;;;;;;;1.83;0.88;;;;;;;;;;4931404;29;20061;-59
2023/04/14 04:35:32;;;;;;;1.80;0.57;;;;;;;;;;4931582;28;20389;-60
2023/04/14 04:38:01;;;;;;;2.03;1.13;;;;;;;;;;4931174;29;20070;-58
2023/04/14 04:40:35;;;;;;;1.00;0.80;;;;;;;;;;4928343;29;20048;-60
2023/04/14 04:43:04;;;;;;;0.88;0.80;;;;;;;;;;4929622;29;20058;-59
2023/04/14 04:45:42;;;;;;;1.77;1.25;;;;;;;;;;4931236;28;20055;-59
2023/04/14 04:48:12;;;;;;;1.50;0.82;;;;;;;;;;4931402;29;20531;-59
2023/04/14 04:50:41;;;;;;;0.73;0.73;;;;;;;;;;4931482;29;20055;-60
2023/04/14 04:53:11;;;;;;;1.67;0.90;;;;;;;;;;4919799;29;20505;-59
2023/04/14 04:55:40;;;;;;;1.05;0.73;;;;;;;;;;4931332;28;20075;-58
2023/04/14 04:58:09;;;;;;;0.80;0.80;;;;;;;;;;4931407;29;20730;-59
2023/04/14 05:00:37;;;;;;;1.00;0.82;;;;;;;;;;4931612;29;20412;-60
2023/04/14 05:03:06;;;;;;;1.08;0.68;;;;;;;;;;4931529;29;20152;-59
2023/04/14 05:05:37;;;;;;;0.55;0.50;;;;;;;;;;4927750;29;20433;-59
2023/04/14 05:08:07;;;;;;;3.25;0.70;;;;;;;;;;4927179;29;20047;-59
2023/04/14 05:10:35;;;;;;;0.77;0.50;;;;;;;;;;4931423;29;20473;-58
2023/04/14 05:13:04;;;;;;;0.70;0.55;;;;;;;;;;4931237;29;20051;-60
2023/04/14 05:15:32;;;;;;;0.88;0.43;;;;;;;;;;4930564;29;20412;-59
2023/04/14 05:18:01;;;;;;;1.40;0.88;;;;;;;;;;4930996;29;20055;-60
2023/04/14 05:20:29;;;;;;;0.68;0.68;;;;;;;;;;4931374;29;20469;-59
2023/04/14 05:23:00;;;;;;;1.20;0.57;;;;;;;;;;4931181;29;20094;-59
2023/04/14 05:25:28;;;;;;;1.95;0.80;;;;;;;;;;4918241;29;20048;-59
2023/04/14 05:27:56;;;;;;;0.63;0.63;;;;;;;;;;4931275;29;20564;-58
2023/04/14 05:30:25;;;;;;;0.82;0.80;;;;;;;;;;4931034;29;20385;-59
2023/04/14 05:32:53;;;;;;;4.45;1.10;;;;;;;;;;4930867;29;20066;-59
2023/04/14 05:35:24;;;;;;;1.83;1.40;;;;;;;;;;4930998;29;20048;-60
2023/04/14 05:37:52;;;;;;;0.98;0.73;;;;;;;;;;4930754;29;20086;-59
2023/04/14 05:40:22;;;;;;;1.65;0.88;;;;;;;;;;4928622;29;20063;-60
2023/04/14 05:42:50;;;;;;;1.70;1.17;;;;;;;;;;4927355;29;20174;-58
2023/04/14 05:45:18;;;;;;;1.42;0.88;;;;;;;;;;4931169;29;20047;-59
2023/04/14 05:47:47;;;;;;;2.13;0.70;;;;;;;;;;4930384;29;20048;-58
2023/04/14 05:50:15;;;;;;;1.60;1.15;;;;;;;;;;4931161;29;20052;-58
2023/04/14 05:52:43;;;;;;;0.60;0.60;;;;;;;;;;4931386;29;20130;-58
2023/04/14 05:55:12;;;;;;;2.65;1.13;;;;;;;;;;4931146;29;20052;-58
2023/04/14 05:57:42;;;;;;;0.50;0.50;;;;;;;;;;4930525;28;20063;-59
2023/04/14 06:00:11;;;;;;;0.52;0.52;;;;;;;;;;4930759;29;20404;-58
2023/04/14 06:02:39;;;;;;;2.80;0.68;;;;;;;;;;4930547;29;20154;-59
2023/04/14 06:05:08;;;;;;;5.43;0.63;;;;;;;;;;4930594;29;20470;-59
2023/04/14 06:07:37;;;;;;;1.00;0.75;;;;;;;;;;4918249;29;20048;-60
2023/04/14 06:10:06;;;;;;;0.73;0.73;;;;;;;;;;4930928;29;20055;-59
2023/04/14 06:12:35;;;;;;;4.85;1.02;;;;;;;;;;4931071;29;20062;-59
2023/04/14 06:15:05;;;;;;;0.57;0.55;;;;;;;;;;4930369;29;20421;-59
2023/04/14 06:17:34;;;;;;;2.30;1.00;;;;;;;;;;4930679;29;20222;-58
2023/04/14 06:20:03;;;;;;;0.63;0.43;;;;;;;;;;4930798;29;20429;-58
2023/04/14 06:22:31;;;;;;;2.30;1.02;;;;;;;;;;4931125;29;20058;-59
2023/04/14 06:25:00;;;;;;;0.70;0.50;;;;;;;;;;4930771;29;20221;-58
2023/04/14 06:27:28;;;;;;;1.23;0.90;;;;;;;;;;4933853;28;20142;-59
2023/04/14 06:29:59;;;;;;;2.75;1.42;;;;;;;;;;4934291;29;20056;-61
2023/04/14 06:32:29;;;;;;;0.85;0.68;;;;;;;;;;4934230;29;20246;-58
2023/04/14 06:34:58;;;;;;;1.13;0.82;;;;;;;;;;4934459;29;20473;-60
2023/04/14 06:37:26;;;;;;;3.97;0.73;;;;;;;;;;4933773;29;20433;-60
2023/04/14 06:39:55;;;;;;;1.17;0.88;;;;;;;;;;4934282;29;20070;-60
2023/04/14 06:42:23;;;;;;;7.43;0.90;;;;;;;;;;4927684;29;20416;-59
2023/04/14 06:44:51;;;;;;;1.45;0.98;;;;;;;;;;4934363;29;20069;-59
2023/04/14 06:47:20;;;;;;;15.68;1.70;;;;;;;;;;4934205;28;20051;-58
2023/04/14 06:49:50;;;;;;;0.95;0.60;;;;;;;;;;4934210;29;20052;-59
2023/04/14 06:52:18;;;;;;;1.88;1.13;;;;;;;;;;4933901;29;20127;-59
2023/04/14 06:54:46;;;;;;;1.05;0.68;;;;;;;;;;4934333;29;20424;-61
2023/04/14 06:57:15;;;;;;;2.60;1.25;;;;;;;;;;4933345;28;20051;-58
2023/04/14 06:59:43;;;;;;;3.25;1.42;;;;;;;;;;4934018;29;20143;-59
2023/04/14 07:02:12;;;;;;;0.98;0.98;;;;;;;;;;4933072;29;20052;-59
2023/04/14 07:04:41;;;;;;;1.02;1.00;;;;;;;;;;4933642;29;20102;-59
2023/04/14 07:07:10;;;;;;;1.13;1.00;;;;;;;;;;4920608;29;20044;-59
2023/04/14 07:09:39;;;;;;;0.85;0.85;;;;;;;;;;4933962;29;20520;-59
2023/04/14 07:12:07;;;;;;;5.85;2.00;;;;;;;;;;4933865;29;20051;-60
2023/04/14 07:14:36;;;;;;;1.75;1.17;;;;;;;;;;4934166;29;20074;-58
2023/04/14 07:17:05;;;;;;;2.30;0.60;;;;;;;;;;4933063;28;20063;-59
2023/04/14 07:19:33;;;;;;;2.92;1.38;;;;;;;;;;4933572;29;20056;-59
2023/04/14 07:22:01;;;;;;;0.75;0.73;;;;;;;;;;4933270;29;20082;-59
2023/04/14 07:24:31;;;;;;;1.80;0.80;;;;;;;;;;4933324;29;20186;-59
2023/04/14 07:27:00;;;;;;;0.45;0.45;;;;;;;;;;4932661;29;20175;-59
2023/04/14 07:29:28;;;;;;;2.55;1.45;;;;;;;;;;4932889;29;20151;-58
2023/04/14 07:31:56;;;;;;;1.10;0.60;;;;;;;;;;4933066;29;20058;-59
2023/04/14 07:34:25;;;;;;;0.85;0.70;;;;;;;;;;4932524;29;20147;-60
2023/04/14 07:36:53;;;;;;;1.92;1.00;;;;;;;;;;4931879;28;20051;-60
2023/04/14 07:39:22;;;;;;;7.53;1.27;;;;;;;;;;4932673;29;20396;-60
2023/04/14 07:41:52;;;;;;;1.70;0.85;;;;;;;;;;4927145;29;20076;-59
2023/04/14 07:44:21;;;;;;;1.33;0.70;;;;;;;;;;4932798;29;20513;-59
2023/04/14 07:46:49;;;;;;;1.23;1.13;;;;;;;;;;4932123;28;20052;-59
2023/04/14 07:49:18;;;;;;;4.45;0.80;;;;;;;;;;4932429;29;20052;-59
2023/04/14 07:51:46;;;;;;;0.77;0.50;;;;;;;;;;4932861;29;20398;-58
2023/04/14 07:54:14;;;;;;;0.93;0.60;;;;;;;;;;4932344;29;20110;-58
2023/04/14 07:56:43;;;;;;;1.30;1.13;;;;;;;;;;4932095;29;20051;-60
2023/04/14 07:59:12;;;;;;;0.98;0.60;;;;;;;;;;4932296;29;20059;-60
2023/04/14 08:01:41;;;;;;;0.52;0.45;;;;;;;;;;4932550;29;20081;-59
2023/04/14 08:04:10;;;;;;;8.27;1.55;;;;;;;;;;4932220;29;20305;-60
2023/04/14 08:06:38;;;;;;;1.48;1.00;;;;;;;;;;4920247;29;20058;-59
2023/04/14 08:09:07;;;;;;;0.82;0.57;;;;;;;;;;4931979;29;20414;-59
2023/04/14 08:11:35;;;;;;;0.73;0.73;;;;;;;;;;4932985;29;20151;-59
2023/04/14 08:14:04;;;;;;;2.35;1.45;;;;;;;;;;4932733;29;20056;-59
2023/04/14 08:16:35;;;;;;;1.20;0.30;;;;;;;;;;4932261;28;20126;-59
2023/04/14 08:19:04;;;;;;;0.70;0.63;;;;;;;;;;4932272;29;20123;-59
2023/04/14 08:21:33;;;;;;;0.43;0.43;;;;;;;;;;4932021;29;20470;-59
2023/04/14 08:24:01;;;;;;;0.70;0.52;;;;;;;;;;4932392;29;20522;-59
2023/04/14 08:26:30;;;;;;;1.38;0.90;;;;;;;;;;4931501;29;20051;-60
2023/04/14 08:28:58;;;;;;;0.75;0.60;;;;;;;;;;4932412;29;20056;-59
2023/04/14 08:31:27;;;;;;;1.27;0.82;;;;;;;;;;4932221;29;20083;-59
2023/04/14 08:33:57;;;;;;;0.88;0.88;;;;;;;;;;4931841;29;20130;-60
2023/04/14 08:36:26;;;;;;;1.10;0.70;;;;;;;;;;4931609;28;20509;-59
2023/04/14 08:38:54;;;;;;;0.73;0.73;;;;;;;;;;4932069;29;20132;-60
2023/04/14 08:41:23;;;;;;;1.05;0.88;;;;;;;;;;4925524;29;20505;-59
2023/04/14 08:43:51;;;;;;;2.80;0.77;;;;;;;;;;4931897;29;20134;-58
2023/04/14 08:46:20;;;;;;;0.43;0.43;;;;;;;;;;4931304;28;20050;-58
2023/04/14 08:48:51;;;;;;;1.70;0.93;;;;;;;;;;4931062;29;20047;-58
2023/04/14 08:51:23;;;;;;;0.20;0.20;;;;;;;;;;4931346;29;20138;-59
2023/04/14 08:53:52;;;;;;;1.05;0.70;;;;;;;;;;4931677;29;20051;-62
2023/04/14 08:56:21;;;;;;;2.05;1.35;;;;;;;;;;4931313;29;20135;-59
2023/04/14 08:58:50;;;;;;;0.45;0.45;;;;;;;;;;4931973;29;20470;-59
2023/04/14 09:01:18;;;;;;;1.27;1.15;;;;;;;;;;4931801;29;20083;-59
2023/04/14 09:03:47;;;;;;;1.75;0.80;;;;;;;;;;4931245;29;20055;-59
2023/04/14 09:06:16;;;;;;;1.10;0.88;;;;;;;;;;4922787;29;20414;-58
2023/04/14 09:08:46;;;;;;;0.52;0.52;;;;;;;;;;4927890;29;20114;-60
2023/04/14 09:11:16;;;;;;;1.63;1.05;;;;;;;;;;4931686;29;20052;-59
2023/04/14 09:13:45;;;;;;;1.50;0.82;;;;;;;;;;4931448;29;20111;-60
2023/04/14 09:16:13;;;;;;;0.88;0.60;;;;;;;;;;4931253;29;20572;-59
2023/04/14 09:18:42;;;;;;;2.22;1.65;;;;;;;;;;4930850;29;20048;-59
2023/04/14 09:21:14;;;;;;;0.55;0.55;;;;;;;;;;4931610;29;20051;-58
2023/04/14 09:24:04;;;;;;;0.70;0.70;;;;;;;;;;4929167;29;20397;-59
2023/04/14 09:26:32;;;;;;;3.83;1.25;;;;;;;;;;4930629;28;20379;-58
2023/04/14 09:29:01;;;;;;;1.63;0.90;;;;;;;;;;4931086;29;20436;-58
2023/04/14 09:31:30;;;;;;;3.55;0.75;;;;;;;;;;4931774;29;20071;-59
2023/04/14 09:33:58;;;;;;;3.10;0.75;;;;;;;;;;4931044;29;20134;-59
2023/04/14 09:36:27;;;;;;;2.38;0.85;;;;;;;;;;4930192;28;20461;-59
2023/04/14 09:38:56;;;;;;;2.42;1.80;;;;;;;;;;4931466;29;20341;-59
2023/04/14 09:41:26;;;;;;;0.77;0.50;;;;;;;;;;4924433;29;20055;-59
2023/04/14 09:43:54;;;;;;;0.88;0.50;;;;;;;;;;4931174;29;20154;-58
2023/04/14 09:46:23;;;;;;;1.42;1.33;;;;;;;;;;4930897;28;20139;-59
2023/04/14 09:48:52;;;;;;;3.10;1.23;;;;;;;;;;4931162;29;20140;-59
2023/04/14 09:51:25;;;;;;;1.13;0.68;;;;;;;;;;4931510;29;20055;-60
2023/04/14 09:53:54;;;;;;;0.65;0.40;;;;;;;;;;4931316;29;20044;-60
2023/04/14 09:56:27;;;;;;;1.02;0.50;;;;;;;;;;4930903;28;20044;-59
2023/04/14 09:58:59;;;;;;;3.83;1.20;;;;;;;;;;4930870;29;20051;-59
2023/04/14 10:01:30;;;;;;;10.15;0.95;;;;;;;;;;4933355;29;20560;-60
2023/04/14 10:04:00;;;;;;;9.32;1.02;;;;;;;;;;4934654;29;20074;-60
2023/04/14 10:06:30;;;;;;;0.57;0.50;;;;;;;;;;4934233;29;20051;-58
2023/04/14 10:08:59;;;;;;;4.07;1.02;;;;;;;;;;4934774;29;20406;-59
2023/04/14 10:11:29;;;;;;;5.80;0.95;;;;;;;;;;4934779;29;20524;-58
2023/04/14 10:13:59;;;;;;;1.77;0.95;;;;;;;;;;4934794;29;20048;-59
2023/04/14 10:16:27;;;;;;;1.55;0.80;;;;;;;;;;4934275;29;20138;-59
2023/04/14 10:18:57;;;;;;;0.75;0.68;;;;;;;;;;4934396;29;20048;-60
2023/04/14 10:21:26;;;;;;;2.20;0.90;;;;;;;;;;4934131;29;20319;-60
2023/04/14 10:23:56;;;;;;;0.57;0.57;;;;;;;;;;4934891;29;20063;-60
2023/04/14 10:26:24;;;;;;;0.73;0.73;;;;;;;;;;4934075;28;20048;-59
2023/04/14 10:28:54;;;;;;;2.15;0.60;;;;;;;;;;4934945;29;20134;-59
2023/04/14 10:31:26;;;;;;;0.52;0.52;;;;;;;;;;4934412;29;20684;-59
2023/04/14 10:33:55;;;;;;;0.40;0.40;;;;;;;;;;4934404;29;20083;-60
2023/04/14 10:36:24;;;;;;;0.47;0.45;;;;;;;;;;4933622;28;20565;-59
2023/04/14 10:38:58;;;;;;;1.85;0.98;;;;;;;;;;4934535;29;20044;-63
2023/04/14 10:41:28;;;;;;;0.90;0.90;;;;;;;;;;4932886;29;20086;-58
2023/04/14 10:43:56;;;;;;;0.38;0.35;;;;;;;;;;4934264;29;20134;-61
2023/04/14 10:46:26;;;;;;;1.23;0.85;;;;;;;;;;4933275;29;20064;-60
2023/04/14 10:48:54;;;;;;;1.25;0.60;;;;;;;;;;4934175;29;20047;-61
2023/04/14 10:51:35;;;;;;;0.57;0.55;;;;;;;;;;4934110;29;20590;-60
2023/04/14 10:54:03;;;;;;;1.10;0.47;;;;;;;;;;4933666;29;20146;-59
2023/04/14 10:56:32;;;;;;;0.77;0.65;;;;;;;;;;4933625;29;20114;-60
2023/04/14 10:59:00;;;;;;;0.95;0.75;;;;;;;;;;4933861;29;20460;-59
2023/04/14 11:01:31;;;;;;;0.57;0.43;;;;;;;;;;4933671;29;20138;-59
2023/04/14 11:04:11;;;;;;;2.38;0.57;;;;;;;;;;4933397;29;20401;-61
2023/04/14 11:06:51;;;;;;;2.03;0.82;;;;;;;;;;4921211;29;20047;-59
2023/04/14 11:09:23;;;;;;;0.38;0.38;;;;;;;;;;4921855;29;20086;-61
2023/04/14 11:11:52;;;;;;;0.95;0.82;;;;;;;;;;4932770;29;20048;-60
2023/04/14 11:14:26;;;;;;;1.17;1.08;;;;;;;;;;4933809;29;20079;-60
2023/04/14 11:17:06;;;;;;;1.55;0.85;;;;;;;;;;4933200;29;20091;-61
2023/04/14 11:19:34;;;;;;;0.98;0.75;;;;;;;;;;4933653;29;20051;-59
2023/04/14 11:22:03;;;;;;;1.90;0.73;;;;;;;;;;4933439;29;20075;-60
2023/04/14 11:24:31;;;;;;;1.50;0.75;;;;;;;;;;4933767;29;20591;-59
2023/04/14 11:27:00;;;;;;;0.98;0.63;;;;;;;;;;4932083;28;20056;-59
2023/04/14 11:29:28;;;;;;;2.20;1.08;;;;;;;;;;4932677;29;20420;-59
2023/04/14 11:32:05;;;;;;;3.25;1.10;;;;;;;;;;4933376;29;20134;-59
2023/04/14 11:34:34;;;;;;;2.33;0.70;;;;;;;;;;4933011;29;20051;-60
2023/04/14 11:37:03;;;;;;;0.57;0.50;;;;;;;;;;4932534;28;20055;-59
2023/04/14 11:39:34;;;;;;;6.40;1.00;;;;;;;;;;4933105;29;20059;-61
2023/04/14 11:42:03;;;;;;;0.77;0.70;;;;;;;;;;4926305;29;20466;-59
2023/04/14 11:44:31;;;;;;;0.60;0.60;;;;;;;;;;4932871;29;20445;-59
2023/04/14 11:47:00;;;;;;;1.13;0.50;;;;;;;;;;4932561;29;20420;-58
2023/04/14 11:49:38;;;;;;;1.65;0.60;;;;;;;;;;4932608;29;20666;-59
2023/04/14 11:52:07;;;;;;;1.13;0.68;;;;;;;;;;4932831;29;20052;-60
2023/04/14 11:54:36;;;;;;;0.80;0.50;;;;;;;;;;4932873;29;20189;-61
2023/04/14 11:57:09;;;;;;;0.40;0.40;;;;;;;;;;4932154;29;20530;-61
2023/04/14 11:59:44;;;;;;;0.90;0.85;;;;;;;;;;4932908;29;20082;-60
2023/04/14 12:02:16;;;;;;;1.02;0.82;;;;;;;;;;4932426;29;20147;-59
2023/04/14 12:04:47;;;;;;;1.27;0.88;;;;;;;;;;4932365;29;20063;-61
2023/04/14 12:07:18;;;;;;;0.88;0.77;;;;;;;;;;4919017;29;20056;-61
2023/04/14 12:09:48;;;;;;;0.70;0.70;;;;;;;;;;4922856;29;20451;-60
2023/04/14 12:12:17;;;;;;;0.82;0.52;;;;;;;;;;4931149;29;20055;-60
2023/04/14 12:14:46;;;;;;;1.52;0.70;;;;;;;;;;4932637;29;20063;-60
2023/04/14 12:17:15;;;;;;;0.85;0.50;;;;;;;;;;4931882;29;20070;-61
2023/04/14 12:19:43;;;;;;;0.40;0.40;;;;;;;;;;4932370;29;20059;-60
2023/04/14 12:22:14;;;;;;;4.60;0.80;;;;;;;;;;4930401;29;20625;-61
2023/04/14 12:24:43;;;;;;;1.88;0.63;;;;;;;;;;4931921;29;20048;-60
2023/04/14 12:27:13;;;;;;;0.47;0.47;;;;;;;;;;4931760;29;20052;-61
2023/04/14 12:29:46;;;;;;;0.77;0.60;;;;;;;;;;4932334;29;20460;-61
2023/04/14 12:32:15;;;;;;;0.73;0.73;;;;;;;;;;4923064;29;20494;-59
2023/04/14 12:34:53;;;;;;;0.38;0.38;;;;;;;;;;4931808;29;20051;-59
2023/04/14 12:37:26;;;;;;;0.52;0.50;;;;;;;;;;4931686;29;20067;-60
2023/04/14 12:39:57;;;;;;;0.40;0.40;;;;;;;;;;4928369;29;20130;-61
2023/04/14 12:42:25;;;;;;;0.60;0.60;;;;;;;;;;4926382;29;20143;-59
2023/04/14 12:44:55;;;;;;;0.55;0.43;;;;;;;;;;4932033;29;20055;-60
2023/04/14 12:47:30;;;;;;;1.17;0.50;;;;;;;;;;4930825;29;20048;-60
2023/04/14 12:49:59;;;;;;;0.30;0.30;;;;;;;;;;4931478;29;20536;-64
2023/04/14 12:52:36;;;;;;;0.70;0.47;;;;;;;;;;4931760;29;20079;-60
2023/04/14 12:55:06;;;;;;;0.63;0.60;;;;;;;;;;4931567;29;20134;-60
2023/04/14 12:57:34;;;;;;;0.68;0.47;;;;;;;;;;4931264;29;20071;-59
2023/04/14 13:00:04;;;;;;;0.60;0.60;;;;;;;;;;4931822;29;20545;-61
2023/04/14 13:02:34;;;;;;;1.25;0.90;;;;;;;;;;4931369;29;20051;-60
2023/04/14 13:05:03;;;;;;;2.47;0.52;;;;;;;;;;4931895;29;20056;-59
2023/04/14 13:07:33;;;;;;;3.50;0.82;;;;;;;;;;4917794;29;20051;-59
2023/04/14 13:10:02;;;;;;;0.98;0.50;;;;;;;;;;4931619;29;20237;-59
2023/04/14 13:12:30;;;;;;;0.65;0.38;;;;;;;;;;4925319;29;20079;-59
2023/04/14 13:14:59;;;;;;;0.30;0.15;;;;;;;;;;4931858;29;20056;-60
2023/04/14 13:17:27;;;;;;;0.25;0.25;;;;;;;;;;4930678;29;20071;-59
2023/04/14 13:19:56;;;;;;;0.60;0.38;;;;;;;;;;4931255;29;20052;-58
2023/04/14 13:22:24;;;;;;;1.25;0.43;;;;;;;;;;4931380;29;20075;-60
2023/04/14 13:24:55;;;;;;;3.40;0.20;;;;;;;;;;4930920;29;20079;-61
2023/04/14 13:27:24;;;;;;;0.13;0.13;;;;;;;;;;4930620;28;20051;-60
2023/04/14 13:29:52;;;;;;;0.20;0.20;;;;;;;;;;4931087;29;20107;-61
2023/04/14 13:32:21;;;;;;;3.17;0.40;;;;;;;;;;4931021;29;20047;-59
2023/04/14 13:34:50;;;;;;;0.57;0.25;;;;;;;;;;4930672;29;20048;-61
2023/04/14 13:37:20;;;;;;;1.25;0.38;;;;;;;;;;4930325;29;20529;-60
2023/04/14 13:39:49;;;;;;;0.25;0.25;;;;;;;;;;4930815;29;20130;-61
2023/04/14 13:42:18;;;;;;;0.20;0.20;;;;;;;;;;4924279;29;20408;-59
2023/04/14 13:44:47;;;;;;;0.85;0.40;;;;;;;;;;4930882;29;20463;-60
2023/04/14 13:47:17;;;;;;;0.80;0.38;;;;;;;;;;4930534;28;20062;-60
2023/04/14 13:49:46;;;;;;;1.35;0.68;;;;;;;;;;4930798;29;20155;-61
2023/04/14 13:52:14;;;;;;;0.20;0.20;;;;;;;;;;4930986;29;20051;-60
2023/04/14 13:54:42;;;;;;;0.57;0.32;;;;;;;;;;4918901;29;20130;-60
2023/04/14 13:57:11;;;;;;;0.20;0.13;;;;;;;;;;4930657;28;20066;-59
2023/04/14 13:59:41;;;;;;;1.45;0.40;;;;;;;;;;4930914;29;20039;-61
2023/04/14 14:02:09;;;;;;;0.63;0.25;;;;;;;;;;4930530;29;20086;-60
2023/04/14 14:04:38;;;;;;;0.95;0.40;;;;;;;;;;4931040;29;20087;-60
2023/04/14 14:07:06;;;;;;;0.30;0.30;;;;;;;;;;4919257;29;20036;-60
2023/04/14 14:09:35;;;;;;;0.90;0.45;;;;;;;;;;4930624;29;20556;-60
2023/04/14 14:12:04;;;;;;;0.30;0.30;;;;;;;;;;4930294;29;20135;-60
2023/04/14 14:14:32;;;;;;;2.42;0.70;;;;;;;;;;4931277;29;20134;-60
2023/04/14 14:17:02;;;;;;;0.95;0.55;;;;;;;;;;4930270;28;20138;-60
2023/04/14 14:19:30;;;;;;;1.15;1.00;;;;;;;;;;4930244;29;20138;-60
2023/04/14 14:21:58;;;;;;;0.50;0.43;;;;;;;;;;4930389;29;20131;-60
2023/04/14 14:24:27;;;;;;;2.78;0.63;;;;;;;;;;4930752;29;20136;-61
2023/04/14 14:26:56;;;;;;;0.30;0.30;;;;;;;;;;4930109;29;20131;-60
2023/04/14 14:29:25;;;;;;;0.88;0.52;;;;;;;;;;4930961;29;20066;-63
2023/04/14 14:31:53;;;;;;;0.10;0.10;;;;;;;;;;4930927;29;20130;-60
2023/04/14 14:34:23;;;;;;;1.30;0.40;;;;;;;;;;4930283;29;20058;-61
2023/04/14 14:36:51;;;;;;;0.17;0.17;;;;;;;;;;4930093;28;20574;-60
2023/04/14 14:39:20;;;;;;;0.30;0.20;;;;;;;;;;4930621;29;20083;-61
2023/04/14 14:41:48;;;;;;;0.20;0.20;;;;;;;;;;4923826;29;20083;-60
2023/04/14 14:44:17;;;;;;;1.65;1.30;;;;;;;;;;4930371;29;20106;-59
2023/04/14 14:46:46;;;;;;;0.10;0.10;;;;;;;;;;4929856;28;20044;-60
2023/04/14 14:49:14;;;;;;;0.15;0.15;;;;;;;;;;4933344;29;20083;-59
2023/04/14 14:51:44;;;;;;;0.80;0.30;;;;;;;;;;4933430;29;20051;-60
2023/04/14 14:54:12;;;;;;;0.10;0.10;;;;;;;;;;4933285;29;20130;-60
2023/04/14 14:56:41;;;;;;;0.10;0.10;;;;;;;;;;4933189;29;20066;-60